createdAt,value
2022-12-16T00:00:04.276Z,36.92
2022-12-16T00:02:31.440Z,35.45
2022-12-16T00:04:58.362Z,35.28
2022-12-16T00:07:25.118Z,32.47
2022-12-16T00:09:51.904Z,35.67
2022-12-16T00:12:18.655Z,34.45
2022-12-16T00:14:45.398Z,35.15
2022-12-16T00:17:12.160Z,35.38
2022-12-16T00:19:38.876Z,34.33
2022-12-16T00:22:05.756Z,34.00
2022-12-16T00:24:32.498Z,33.80
2022-12-16T00:26:59.257Z,34.90
2022-12-16T00:29:26.021Z,33.28
2022-12-16T00:31:52.823Z,34.10
2022-12-16T00:34:20.704Z,34.25
2022-12-16T00:36:47.487Z,34.92
2022-12-16T00:39:14.297Z,34.90
2022-12-16T00:41:41.012Z,32.70
2022-12-16T00:44:07.739Z,33.47
2022-12-16T00:46:35.194Z,34.30
2022-12-16T00:49:01.933Z,32.90
2022-12-16T00:51:28.704Z,32.88
2022-12-16T00:53:55.415Z,32.22
2022-12-16T00:56:22.159Z,34.47
2022-12-16T00:58:49.175Z,32.03
2022-12-16T01:01:15.921Z,34.13
2022-12-16T01:03:42.928Z,31.40
2022-12-16T01:06:13.744Z,33.28
2022-12-16T01:08:40.608Z,29.75
2022-12-16T01:11:09.728Z,30.20
2022-12-16T01:13:36.714Z,30.80
2022-12-16T01:16:03.566Z,29.27
2022-12-16T01:18:30.278Z,29.60
2022-12-16T01:21:06.521Z,31.77
2022-12-16T01:23:34.590Z,32.13
2022-12-16T01:26:02.743Z,31.00
2022-12-16T01:28:30.660Z,33.13
2022-12-16T01:31:02.128Z,32.03
2022-12-16T01:33:31.441Z,30.85
2022-12-16T01:36:04.677Z,30.42
2022-12-16T01:38:31.665Z,32.40
2022-12-16T01:41:00.326Z,28.65
2022-12-16T01:43:31.136Z,29.95
2022-12-16T01:46:04.703Z,30.13
2022-12-16T01:48:56.630Z,29.20
2022-12-16T01:51:55.320Z,32.13
2022-12-16T01:54:26.425Z,29.58
2022-12-16T01:57:00.069Z,30.90
2022-12-16T01:59:29.721Z,29.40
2022-12-16T02:01:58.137Z,32.28
2022-12-16T02:04:25.224Z,29.00
2022-12-16T02:06:52.210Z,28.67
2022-12-16T02:09:19.525Z,28.63
2022-12-16T02:11:52.257Z,29.17
2022-12-16T02:14:37.097Z,29.13
2022-12-16T02:17:45.255Z,27.65
2022-12-16T02:20:46.667Z,30.38
2022-12-16T02:23:38.352Z,28.95
2022-12-16T02:26:43.311Z,28.02
2022-12-16T02:29:18.638Z,28.20
2022-12-16T02:31:55.131Z,27.13
2022-12-16T02:34:35.486Z,29.05
2022-12-16T02:37:21.407Z,27.85
2022-12-16T02:39:58.696Z,26.27
2022-12-16T02:42:43.966Z,29.17
2022-12-16T02:45:17.872Z,28.75
2022-12-16T02:47:46.090Z,27.58
2022-12-16T02:50:26.083Z,28.23
2022-12-16T02:52:55.819Z,26.77
2022-12-16T02:55:35.780Z,28.20
2022-12-16T02:58:37.638Z,27.75
2022-12-16T03:01:36.769Z,28.10
2022-12-16T03:04:10.947Z,25.55
2022-12-16T03:06:40.950Z,26.13
2022-12-16T03:09:11.354Z,29.67
2022-12-16T03:11:41.365Z,26.67
2022-12-16T03:14:11.009Z,27.15
2022-12-16T03:16:37.906Z,28.08
2022-12-16T03:19:08.305Z,27.00
2022-12-16T03:21:43.306Z,27.73
2022-12-16T03:24:13.795Z,25.48
2022-12-16T03:26:49.646Z,26.88
2022-12-16T03:29:30.477Z,27.13
2022-12-16T03:32:11.869Z,25.77
2022-12-16T03:35:01.351Z,26.42
2022-12-16T03:37:32.842Z,26.55
2022-12-16T03:40:03.435Z,28.52
2022-12-16T03:42:30.761Z,27.42
2022-12-16T03:44:57.853Z,27.65
2022-12-16T03:47:30.907Z,27.98
2022-12-16T03:49:57.609Z,26.15
2022-12-16T03:52:24.339Z,25.92
2022-12-16T03:54:51.060Z,27.02
2022-12-16T03:57:17.854Z,26.25
2022-12-16T03:59:44.604Z,25.95
2022-12-16T04:02:11.586Z,27.27
2022-12-16T04:04:38.554Z,26.70
2022-12-16T04:07:20.227Z,26.85
2022-12-16T04:09:51.330Z,26.35
2022-12-16T04:12:37.215Z,26.52
2022-12-16T04:15:24.144Z,24.70
2022-12-16T04:18:09.895Z,27.58
2022-12-16T04:20:58.355Z,25.20
2022-12-16T04:23:46.194Z,25.55
2022-12-16T04:26:13.073Z,25.38
2022-12-16T04:28:40.002Z,26.88
2022-12-16T04:31:07.157Z,25.00
2022-12-16T04:33:52.783Z,28.88
2022-12-16T04:36:38.294Z,24.70
2022-12-16T04:39:23.845Z,21.88
2022-12-16T04:42:13.565Z,22.42
2022-12-16T04:44:59.007Z,22.75
2022-12-16T04:47:44.852Z,24.77
2022-12-16T04:50:30.586Z,23.73
2022-12-16T04:53:15.873Z,22.65
2022-12-16T04:56:04.410Z,23.20
2022-12-16T04:58:50.360Z,22.48
2022-12-16T05:01:36.252Z,24.00
2022-12-16T05:04:21.489Z,22.08
2022-12-16T05:07:07.101Z,24.00
2022-12-16T05:09:52.240Z,23.98
2022-12-16T05:12:37.743Z,24.10
2022-12-16T05:15:23.950Z,22.77
2022-12-16T05:18:09.186Z,22.25
2022-12-16T05:20:54.669Z,22.75
2022-12-16T05:23:40.601Z,24.10
2022-12-16T05:26:26.182Z,21.05
2022-12-16T05:29:11.718Z,23.02
2022-12-16T05:31:57.094Z,23.58
2022-12-16T05:34:42.646Z,23.00
2022-12-16T05:37:27.968Z,22.35
2022-12-16T05:40:13.513Z,21.10
2022-12-16T05:42:58.972Z,21.83
2022-12-16T05:45:44.683Z,21.30
2022-12-16T05:48:29.959Z,22.10
2022-12-16T05:51:15.479Z,23.55
2022-12-16T05:54:01.108Z,23.13
2022-12-16T05:56:46.640Z,23.77
2022-12-16T05:59:32.138Z,21.75
2022-12-16T06:02:17.696Z,21.83
2022-12-16T06:05:02.990Z,21.65
2022-12-16T06:07:48.540Z,22.95
2022-12-16T06:10:34.177Z,22.48
2022-12-16T06:13:21.190Z,22.40
2022-12-16T06:16:09.108Z,21.30
2022-12-16T06:18:54.688Z,21.52
2022-12-16T06:21:40.626Z,21.90
2022-12-16T06:24:26.312Z,23.10
2022-12-16T06:27:11.837Z,21.50
2022-12-16T06:29:57.424Z,22.63
2022-12-16T06:32:42.977Z,21.83
2022-12-16T06:35:28.562Z,22.45
2022-12-16T06:38:14.120Z,21.65
2022-12-16T06:40:59.586Z,22.58
2022-12-16T06:43:45.010Z,22.77
2022-12-16T06:46:31.164Z,20.88
2022-12-16T06:49:16.244Z,22.17
2022-12-16T06:52:01.781Z,19.95
2022-12-16T06:54:47.262Z,23.20
2022-12-16T06:57:32.564Z,21.45
2022-12-16T07:00:17.931Z,22.33
2022-12-16T07:03:03.282Z,21.27
2022-12-16T07:05:48.822Z,21.20
2022-12-16T07:08:34.337Z,21.50
2022-12-16T07:11:19.601Z,23.23
2022-12-16T07:14:05.137Z,20.27
2022-12-16T07:16:50.751Z,19.67
2022-12-16T07:19:35.979Z,21.98
2022-12-16T07:22:21.384Z,22.10
2022-12-16T07:25:06.950Z,21.45
2022-12-16T07:27:52.357Z,23.08
2022-12-16T07:30:37.907Z,22.48
2022-12-16T07:33:23.427Z,22.67
2022-12-16T07:36:09.043Z,21.67
2022-12-16T07:38:54.638Z,22.80
2022-12-16T07:41:40.183Z,21.13
2022-12-16T07:44:25.884Z,22.23
2022-12-16T07:47:11.426Z,22.30
2022-12-16T07:49:56.884Z,22.92
2022-12-16T07:52:42.544Z,23.17
2022-12-16T07:55:28.008Z,21.60
2022-12-16T07:58:13.514Z,22.55
2022-12-16T08:00:58.974Z,23.20
2022-12-16T08:03:44.304Z,21.80
2022-12-16T08:06:29.619Z,21.20
2022-12-16T08:09:15.154Z,21.08
2022-12-16T08:12:00.652Z,22.05
2022-12-16T08:14:45.845Z,21.88
2022-12-16T08:17:38.965Z,23.38
2022-12-16T08:20:24.952Z,22.85
2022-12-16T08:23:10.660Z,25.00
2022-12-16T08:25:56.086Z,23.25
2022-12-16T08:28:41.569Z,22.83
2022-12-16T08:31:26.996Z,22.20
2022-12-16T08:34:12.367Z,21.77
2022-12-16T08:36:58.048Z,21.83
2022-12-16T08:39:43.216Z,21.67
2022-12-16T08:42:28.691Z,22.23
2022-12-16T08:45:13.986Z,22.88
2022-12-16T08:47:59.552Z,21.15
2022-12-16T08:50:45.176Z,21.98
2022-12-16T08:53:30.860Z,23.08
2022-12-16T08:56:16.507Z,21.80
2022-12-16T08:59:02.039Z,22.00
2022-12-16T09:01:47.622Z,22.42
2022-12-16T09:04:40.583Z,23.23
2022-12-16T09:07:26.161Z,23.55
2022-12-16T09:10:11.644Z,23.83
2022-12-16T09:12:57.175Z,24.02
2022-12-16T09:15:42.528Z,23.77
2022-12-16T09:18:27.989Z,24.05
2022-12-16T09:21:13.597Z,24.63
2022-12-16T09:23:59.019Z,25.65
2022-12-16T09:26:50.633Z,23.52
2022-12-16T09:29:39.370Z,24.08
2022-12-16T09:32:27.498Z,24.48
2022-12-16T09:35:13.757Z,21.35
2022-12-16T09:38:05.042Z,24.30
2022-12-16T09:40:50.833Z,22.63
2022-12-16T09:43:55.289Z,23.67
2022-12-16T09:47:18.254Z,20.40
2022-12-16T09:50:11.480Z,21.08
2022-12-16T09:53:14.332Z,20.52
2022-12-16T09:56:01.246Z,22.48
2022-12-16T09:58:51.793Z,21.63
2022-12-16T10:01:40.343Z,22.15
2022-12-16T10:04:26.298Z,20.48
2022-12-16T10:07:17.123Z,21.50
2022-12-16T10:10:02.522Z,21.75
2022-12-16T10:13:32.146Z,19.80
2022-12-16T10:16:31.550Z,19.67
2022-12-16T10:19:23.417Z,21.20
2022-12-16T10:22:32.654Z,20.10
2022-12-16T10:25:37.972Z,20.30
2022-12-16T10:28:44.855Z,20.02
2022-12-16T10:31:49.339Z,20.13
2022-12-16T10:34:40.019Z,20.42
2022-12-16T10:37:31.165Z,19.05
2022-12-16T10:40:18.642Z,20.67
2022-12-16T10:43:22.572Z,18.55
2022-12-16T10:46:11.064Z,20.50
2022-12-16T10:48:57.241Z,20.45
2022-12-16T10:51:46.768Z,19.38
2022-12-16T10:54:57.224Z,19.40
2022-12-16T10:57:51.990Z,20.77
2022-12-16T11:00:56.525Z,20.67
2022-12-16T11:03:44.310Z,21.15
2022-12-16T11:06:31.940Z,21.00
2022-12-16T11:09:34.091Z,19.48
2022-12-16T11:12:47.110Z,22.02
2022-12-16T11:15:50.307Z,23.30
2022-12-16T11:18:40.997Z,23.20
2022-12-16T11:21:29.323Z,22.92
2022-12-16T11:24:33.023Z,22.35
2022-12-16T11:27:20.687Z,23.88
2022-12-16T11:30:10.456Z,22.90
2022-12-16T11:32:58.478Z,22.70
2022-12-16T11:35:47.447Z,24.77
2022-12-16T11:38:44.573Z,22.65
2022-12-16T11:41:52.152Z,23.45
2022-12-16T11:44:54.184Z,23.73
2022-12-16T11:48:05.521Z,22.10
2022-12-16T11:51:12.249Z,23.85
2022-12-16T11:54:07.172Z,23.92
2022-12-16T11:56:58.245Z,24.70
2022-12-16T11:59:52.374Z,22.55
2022-12-16T12:02:51.293Z,22.45
2022-12-16T12:05:41.521Z,22.83
2022-12-16T12:08:36.349Z,24.73
2022-12-16T12:11:50.273Z,24.65
2022-12-16T12:14:57.696Z,22.85
2022-12-16T12:17:48.852Z,24.60
2022-12-16T12:20:58.777Z,23.73
2022-12-16T12:24:26.739Z,24.15
2022-12-16T12:27:50.471Z,24.92
2022-12-16T12:30:40.200Z,25.15
2022-12-16T12:33:28.353Z,26.13
2022-12-16T12:36:13.575Z,26.55
2022-12-16T12:39:17.620Z,26.05
2022-12-16T12:42:28.884Z,26.92
2022-12-16T12:45:19.804Z,28.65
2022-12-16T12:48:21.514Z,28.77
2022-12-16T12:51:26.301Z,28.63
2022-12-16T12:54:45.336Z,29.55
2022-12-16T12:57:33.752Z,28.52
2022-12-16T13:00:40.924Z,30.08
2022-12-16T13:03:35.097Z,28.92
2022-12-16T13:06:29.068Z,28.33
2022-12-16T13:09:16.903Z,28.23
2022-12-16T13:12:25.509Z,28.30
2022-12-16T13:15:11.900Z,30.42
2022-12-16T13:18:22.338Z,28.63
2022-12-16T13:21:11.932Z,28.00
2022-12-16T13:23:59.991Z,30.17
2022-12-16T13:26:48.136Z,27.15
2022-12-16T13:30:18.456Z,27.88
2022-12-16T13:33:13.832Z,27.17
2022-12-16T13:36:15.480Z,31.02
2022-12-16T13:39:14.786Z,29.75
2022-12-16T13:42:00.202Z,29.65
2022-12-16T13:45:00.691Z,29.25
2022-12-16T13:47:59.337Z,29.70
2022-12-16T13:51:04.916Z,28.48
2022-12-16T13:53:55.564Z,26.88
2022-12-16T13:56:54.811Z,29.95
2022-12-16T13:59:43.973Z,31.55
2022-12-16T14:02:45.729Z,31.15
2022-12-16T14:05:42.610Z,29.13
2022-12-16T14:08:52.055Z,30.67
2022-12-16T14:11:55.328Z,28.55
2022-12-16T14:15:06.590Z,29.20
2022-12-16T14:18:22.337Z,28.35
2022-12-16T14:21:14.185Z,29.98
2022-12-16T14:24:06.963Z,29.42
2022-12-16T14:26:55.191Z,30.75
2022-12-16T14:29:48.698Z,31.95
2022-12-16T14:32:38.655Z,30.30
2022-12-16T14:35:34.685Z,30.98
2022-12-16T14:38:50.588Z,29.15
2022-12-16T14:41:41.632Z,30.85
2022-12-16T14:44:39.185Z,29.23
2022-12-16T14:47:25.122Z,28.50
2022-12-16T14:50:12.729Z,30.15
2022-12-16T14:52:58.748Z,30.15
2022-12-16T14:55:52.782Z,28.48
2022-12-16T14:58:40.776Z,29.77
2022-12-16T15:01:41.646Z,30.63
2022-12-16T15:04:42.333Z,34.38
2022-12-16T15:07:34.898Z,34.40
2022-12-16T15:10:20.795Z,43.13
2022-12-16T15:13:07.218Z,40.17
2022-12-16T15:15:54.948Z,41.85
2022-12-16T15:18:49.286Z,42.63
2022-12-16T15:21:34.818Z,41.90
2022-12-16T15:24:20.270Z,38.80
2022-12-16T15:27:05.720Z,39.58
2022-12-16T15:30:00.484Z,39.33
2022-12-16T15:32:45.903Z,41.03
2022-12-16T15:35:49.267Z,37.53
2022-12-16T15:38:34.875Z,40.85
2022-12-16T15:41:21.901Z,41.30
2022-12-16T15:44:07.334Z,43.80
2022-12-16T15:46:53.967Z,48.58
2022-12-16T15:49:45.049Z,37.33
2022-12-16T15:52:53.973Z,37.83
2022-12-16T15:56:04.909Z,38.42
2022-12-16T15:58:55.272Z,36.40
2022-12-16T16:01:45.431Z,37.03
2022-12-16T16:04:46.406Z,34.05
2022-12-16T16:07:41.568Z,33.83
2022-12-16T16:10:41.432Z,41.28
2022-12-16T16:13:27.632Z,33.38
2022-12-16T16:16:13.976Z,34.67
2022-12-16T16:19:01.299Z,35.97
2022-12-16T16:21:47.965Z,37.17
2022-12-16T16:24:33.597Z,33.80
2022-12-16T16:27:21.078Z,32.05
2022-12-16T16:30:06.743Z,32.33
2022-12-16T16:32:51.955Z,34.78
2022-12-16T16:35:37.152Z,34.67
2022-12-16T16:38:22.482Z,35.15
2022-12-16T16:41:08.024Z,34.45
2022-12-16T16:43:53.736Z,34.53
2022-12-16T16:46:39.146Z,32.10
2022-12-16T16:49:28.877Z,34.80
2022-12-16T16:52:14.333Z,33.45
2022-12-16T16:54:59.860Z,35.40
2022-12-16T16:57:50.307Z,33.88
2022-12-16T17:00:35.940Z,33.13
2022-12-16T17:03:21.580Z,35.72
2022-12-16T17:06:07.217Z,31.25
2022-12-16T17:08:52.814Z,35.20
2022-12-16T17:11:46.998Z,31.92
2022-12-16T17:14:34.871Z,32.55
2022-12-16T17:17:21.002Z,30.88
2022-12-16T17:20:06.757Z,30.00
2022-12-16T17:22:51.996Z,33.00
2022-12-16T17:25:37.422Z,32.92
2022-12-16T17:28:23.411Z,32.47
2022-12-16T17:31:08.880Z,30.77
2022-12-16T17:33:54.504Z,31.67
2022-12-16T17:36:39.936Z,30.88
2022-12-16T17:39:25.618Z,32.00
2022-12-16T17:42:11.064Z,31.92
2022-12-16T17:44:56.546Z,37.20
2022-12-16T17:47:42.310Z,33.60
2022-12-16T17:50:28.291Z,33.03
2022-12-16T17:53:15.069Z,35.50
2022-12-16T17:56:00.648Z,32.95
2022-12-16T17:58:54.561Z,36.97
2022-12-16T18:01:41.009Z,38.05
2022-12-16T18:04:26.827Z,34.67
2022-12-16T18:07:12.756Z,36.28
2022-12-16T18:10:00.589Z,39.10
2022-12-16T18:12:46.818Z,37.58
2022-12-16T18:15:32.302Z,40.78
2022-12-16T18:18:17.862Z,40.90
2022-12-16T18:21:03.275Z,43.08
2022-12-16T18:23:49.883Z,41.83
2022-12-16T18:26:35.771Z,42.10
2022-12-16T18:29:21.380Z,39.90
2022-12-16T18:32:08.248Z,42.80
2022-12-16T18:34:53.581Z,41.00
2022-12-16T18:37:39.090Z,39.42
2022-12-16T18:40:25.149Z,43.05
2022-12-16T18:43:10.412Z,42.92
2022-12-16T18:45:56.054Z,39.08
2022-12-16T18:48:41.428Z,42.80
2022-12-16T18:51:26.960Z,44.65
2022-12-16T18:54:12.446Z,41.45
2022-12-16T18:56:58.082Z,47.08
2022-12-16T18:59:43.656Z,46.47
2022-12-16T19:02:29.367Z,51.85
2022-12-16T19:05:14.657Z,39.97
2022-12-16T19:08:00.150Z,35.72
2022-12-16T19:10:45.853Z,36.55
2022-12-16T19:13:32.865Z,34.97
2022-12-16T19:16:21.583Z,37.58
2022-12-16T19:19:07.361Z,40.72
2022-12-16T19:21:56.738Z,38.85
2022-12-16T19:24:43.195Z,39.72
2022-12-16T19:27:28.775Z,40.85
2022-12-16T19:30:14.408Z,41.08
2022-12-16T19:32:59.868Z,40.45
2022-12-16T19:35:45.434Z,39.22
2022-12-16T19:38:32.839Z,37.20
2022-12-16T19:41:18.217Z,37.22
2022-12-16T19:44:06.221Z,37.63
2022-12-16T19:46:55.921Z,31.60
2022-12-16T19:49:44.432Z,32.47
2022-12-16T19:52:30.026Z,36.28
2022-12-16T19:58:20.727Z,32.00
2022-12-16T20:01:05.995Z,37.28
2022-12-16T20:03:52.329Z,36.67
2022-12-16T20:06:40.588Z,34.67
2022-12-16T20:09:26.165Z,35.97
2022-12-16T20:12:11.363Z,36.42
2022-12-16T20:14:56.934Z,36.88
2022-12-16T20:17:42.263Z,34.72
2022-12-16T20:20:27.572Z,35.33
2022-12-16T20:23:14.629Z,36.70
2022-12-16T20:26:00.194Z,36.83
2022-12-16T20:28:45.686Z,32.83
2022-12-16T20:31:31.232Z,36.03
2022-12-16T20:34:16.762Z,34.53
2022-12-16T20:37:02.447Z,35.97
2022-12-16T20:42:53.581Z,35.03
2022-12-16T20:45:38.839Z,36.25
2022-12-16T20:48:24.466Z,36.78
2022-12-16T20:51:24.350Z,36.08
2022-12-16T20:54:12.200Z,37.47
2022-12-16T20:56:57.188Z,35.55
2022-12-16T20:59:42.769Z,34.90
2022-12-16T21:02:33.542Z,37.55
2022-12-16T21:05:20.073Z,37.47
2022-12-16T21:08:05.437Z,36.40
2022-12-16T21:10:51.645Z,36.08
2022-12-16T21:13:37.238Z,37.35
2022-12-16T21:14:42.488Z,36.72
2022-12-16T21:16:25.497Z,33.72
2022-12-16T21:19:11.057Z,35.30
2022-12-16T21:21:56.682Z,34.83
2022-12-16T21:24:42.261Z,37.38
2022-12-16T21:27:35.502Z,34.28
2022-12-16T21:30:21.595Z,38.15
2022-12-16T21:33:08.741Z,36.83
2022-12-16T21:35:56.091Z,36.60
2022-12-16T21:38:41.708Z,36.65
2022-12-16T21:41:27.114Z,35.83
2022-12-16T21:44:12.504Z,34.85
2022-12-16T21:46:58.137Z,36.08
2022-12-16T21:49:43.705Z,35.95
2022-12-16T21:52:29.382Z,37.55
2022-12-16T21:55:14.480Z,36.50
2022-12-16T21:58:01.815Z,36.22
2022-12-16T22:00:46.956Z,34.83
2022-12-16T22:03:32.526Z,32.90
2022-12-16T22:06:18.454Z,35.28
2022-12-16T22:09:03.832Z,34.80
2022-12-16T22:11:49.528Z,32.25
2022-12-16T22:14:34.880Z,33.70
2022-12-16T22:17:20.424Z,33.05
2022-12-16T22:20:06.061Z,31.05
2022-12-16T22:22:51.282Z,32.53
2022-12-16T22:25:37.334Z,35.72
2022-12-16T22:28:24.425Z,38.47
2022-12-16T22:31:15.897Z,34.75
2022-12-16T22:34:01.680Z,34.47
2022-12-16T22:36:47.205Z,34.95
2022-12-16T22:39:32.613Z,35.13
2022-12-16T22:42:17.913Z,33.55
2022-12-16T22:45:03.433Z,32.65
2022-12-16T22:47:49.844Z,36.40
2022-12-16T22:50:35.304Z,32.60
2022-12-16T22:53:20.753Z,33.95
2022-12-16T22:56:13.553Z,33.53
2022-12-16T22:58:59.583Z,38.53
2022-12-16T23:01:45.437Z,37.05
2022-12-16T23:04:30.758Z,35.45
2022-12-16T23:07:16.269Z,35.60
2022-12-16T23:10:01.678Z,35.33
2022-12-16T23:12:47.223Z,34.17
2022-12-16T23:15:33.414Z,34.55
2022-12-16T23:18:18.967Z,36.53
2022-12-16T23:21:09.653Z,36.72
2022-12-16T23:23:56.981Z,37.65
2022-12-16T23:26:42.711Z,33.25
2022-12-16T23:29:28.291Z,35.85
2022-12-16T23:32:13.692Z,37.08
2022-12-16T23:35:01.657Z,37.90
2022-12-16T23:37:46.851Z,37.80
2022-12-16T23:40:32.396Z,36.92
2022-12-16T23:43:17.781Z,35.20
2022-12-16T23:46:03.377Z,33.83
2022-12-16T23:48:49.015Z,35.28
2022-12-16T23:51:34.552Z,34.97
2022-12-16T23:54:20.314Z,34.63
2022-12-16T23:57:05.525Z,36.38
2022-12-16T23:59:50.838Z,39.15
